KESC/ESC METAR and TAF weather

Enter ICAO airport designator
Station Type Date Time Source
KESC METAR 2022/12/05 13:56 UTC NOAA

KESC 051356Z AUTO 25007KT 10SM CLR M03/M07 A2976 RMK AO2 SLP090 T10331072 FZRANO


Station Type Date Time Source
KESC Decoded METAR 2022/12/05 13:56 UTC NOAA

Escanaba, MI, United States (KESC) 45-45N 087-02W 187M
Dec 05, 2022 - 08:56 AM EST / 2022.12.05 1356 UTC
Wind: from the WSW (250 degrees) at 8 MPH (7 KT):0
Visibility: 10 mile(s):0
Sky conditions: clear
Temperature: 26.1 F (-3.3 C)
Windchill: 17 F (-8 C):1
Dew Point: 19.0 F (-7.2 C)
Relative Humidity: 74%
Pressure (altimeter): 29.76 in. Hg (1007 hPa)
ob: KESC 051356Z AUTO 25007KT 10SM CLR M03/M07 A2976 RMK AO2 SLP090 T10331072 FZRANO
cycle: 14

Station Type Date Time Source
KESC TAF UTC NOAA

Error!

Example: see airport list